createdAt,value
2022-08-04T00:00:31.934Z,10.80
2022-08-04T00:03:24.537Z,13.45
2022-08-04T00:08:47.013Z,10.98
2022-08-04T00:11:23.505Z,9.23
2022-08-04T00:14:03.147Z,10.98
2022-08-04T00:16:38.774Z,8.25
2022-08-04T00:19:16.837Z,8.10
2022-08-04T00:21:52.088Z,13.60
2022-08-04T00:24:21.861Z,18.60
2022-08-04T00:26:49.531Z,17.10
2022-08-04T00:29:17.137Z,19.67
2022-08-04T00:31:56.258Z,21.67
2022-08-04T00:34:30.174Z,17.92
2022-08-04T00:36:58.814Z,14.95
2022-08-04T00:39:27.576Z,18.27
2022-08-04T00:42:13.441Z,21.20
2022-08-04T00:44:56.010Z,16.50
2022-08-04T00:47:41.607Z,16.20
2022-08-04T00:50:32.370Z,15.77
2022-08-04T00:53:19.156Z,18.63
2022-08-04T00:56:07.621Z,26.67
2022-08-04T00:58:52.610Z,15.95
2022-08-04T01:01:37.083Z,17.20
2022-08-04T01:04:15.061Z,17.88
2022-08-04T01:07:07.533Z,18.70
2022-08-04T01:09:55.361Z,18.48
2022-08-04T01:12:31.712Z,15.68
2022-08-04T01:15:18.476Z,17.42
2022-08-04T01:18:06.700Z,16.63
2022-08-04T01:21:01.804Z,20.95
2022-08-04T01:24:01.658Z,17.33
2022-08-04T01:26:57.673Z,26.52
2022-08-04T01:29:47.035Z,21.60
2022-08-04T01:32:37.315Z,29.23
2022-08-04T01:35:04.992Z,19.70
2022-08-04T01:37:48.074Z,18.05
2022-08-04T01:42:46.177Z,18.98
2022-08-04T01:45:14.773Z,22.30
2022-08-04T01:47:54.497Z,22.45
2022-08-04T01:50:23.252Z,19.38
2022-08-04T01:52:54.232Z,19.42
2022-08-04T01:55:22.851Z,18.42
2022-08-04T01:57:53.666Z,21.35
2022-08-04T02:00:23.769Z,23.98
2022-08-04T02:02:51.807Z,20.73
2022-08-04T02:05:21.862Z,16.50
2022-08-04T02:08:04.932Z,18.70
2022-08-04T02:13:22.238Z,20.98
2022-08-04T02:15:58.278Z,17.08
2022-08-04T02:18:49.657Z,16.50
2022-08-04T02:21:20.934Z,13.80
2022-08-04T02:24:03.280Z,12.80
2022-08-04T02:26:33.927Z,13.38
2022-08-04T02:29:04.577Z,12.07
2022-08-04T02:31:38.838Z,13.40
2022-08-04T02:34:10.271Z,15.70
2022-08-04T02:36:40.727Z,11.73
2022-08-04T02:39:10.525Z,14.45
2022-08-04T02:41:40.475Z,16.92
2022-08-04T02:44:10.735Z,13.00
2022-08-04T02:46:42.191Z,12.52
2022-08-04T02:49:11.532Z,11.32
2022-08-04T02:51:43.552Z,14.30
2022-08-04T02:54:15.679Z,13.40
2022-08-04T02:57:00.366Z,12.40
2022-08-04T02:59:30.475Z,13.25
2022-08-04T03:01:58.470Z,12.07
2022-08-04T03:04:50.679Z,18.40
2022-08-04T03:07:43.985Z,12.20
2022-08-04T03:10:36.014Z,10.45
2022-08-04T03:13:23.491Z,12.00
2022-08-04T03:16:12.992Z,12.75
2022-08-04T03:18:55.858Z,10.85
2022-08-04T03:21:50.751Z,8.48
2022-08-04T03:24:55.702Z,9.75
2022-08-04T03:27:43.726Z,9.93
2022-08-04T03:30:18.224Z,10.27
2022-08-04T03:33:01.696Z,14.98
2022-08-04T03:35:46.025Z,16.02
2022-08-04T03:38:57.096Z,13.43
2022-08-04T03:41:51.624Z,10.70
2022-08-04T03:45:01.689Z,15.52
2022-08-04T03:47:45.173Z,11.80
2022-08-04T03:50:13.353Z,8.10
2022-08-04T03:52:59.214Z,10.50
2022-08-04T03:55:47.656Z,13.20
2022-08-04T03:58:36.543Z,8.07
2022-08-04T04:01:11.760Z,9.25
2022-08-04T04:03:48.357Z,16.67
2022-08-04T04:06:31.270Z,13.30
2022-08-04T04:10:01.178Z,10.10
2022-08-04T04:12:51.923Z,13.88
2022-08-04T04:15:49.946Z,11.82
2022-08-04T04:18:55.028Z,17.48
2022-08-04T04:21:43.814Z,11.07
2022-08-04T04:24:41.191Z,8.52
2022-08-04T04:27:45.765Z,5.93
2022-08-04T04:30:19.980Z,6.13
2022-08-04T04:33:33.031Z,10.15
2022-08-04T04:36:18.629Z,8.65
2022-08-04T04:39:04.838Z,6.43
2022-08-04T04:41:48.401Z,5.35
2022-08-04T04:44:52.697Z,4.28
2022-08-04T04:48:08.661Z,4.70
2022-08-04T04:50:58.979Z,4.38
2022-08-04T04:53:44.991Z,5.13
2022-08-04T04:56:25.960Z,5.55
2022-08-04T04:58:55.933Z,7.68
2022-08-04T05:01:45.137Z,3.50
2022-08-04T05:04:24.666Z,3.17
2022-08-04T05:07:22.683Z,8.80
2022-08-04T05:10:40.542Z,5.32
2022-08-04T05:14:34.916Z,4.50
2022-08-04T05:16:16.470Z,6.10
2022-08-04T05:18:55.044Z,6.13
2022-08-04T05:21:43.370Z,8.43
2022-08-04T05:24:13.741Z,8.25
2022-08-04T05:26:46.438Z,7.10
2022-08-04T05:29:25.156Z,5.80
2022-08-04T05:32:05.219Z,7.75
2022-08-04T05:34:39.659Z,6.03
2022-08-04T05:37:15.286Z,5.63
2022-08-04T05:39:54.344Z,6.38
2022-08-04T05:42:23.458Z,5.95
2022-08-04T05:44:52.082Z,3.72
2022-08-04T05:47:22.487Z,4.07
2022-08-04T05:50:01.426Z,7.60
2022-08-04T05:52:32.799Z,6.20
2022-08-04T05:55:01.984Z,5.15
2022-08-04T05:57:32.110Z,4.53
2022-08-04T06:00:25.302Z,6.18
2022-08-04T06:02:53.183Z,5.63
2022-08-04T06:05:21.005Z,7.80
2022-08-04T06:08:12.692Z,5.95
2022-08-04T06:10:40.345Z,8.18
2022-08-04T06:13:48.317Z,5.47
2022-08-04T06:16:02.170Z,6.60
2022-08-04T06:18:33.398Z,4.50
2022-08-04T06:21:23.097Z,8.32
2022-08-04T06:23:53.751Z,4.88
2022-08-04T06:26:28.177Z,8.75
2022-08-04T06:28:57.522Z,5.50
2022-08-04T06:32:31.311Z,6.35
2022-08-04T06:34:33.496Z,4.20
2022-08-04T06:37:01.362Z,7.15
2022-08-04T06:39:32.454Z,8.85
2022-08-04T06:42:17.071Z,8.60
2022-08-04T06:44:58.081Z,5.90
2022-08-04T06:47:26.766Z,7.82
2022-08-04T06:51:26.619Z,8.05
2022-08-04T06:52:46.216Z,11.73
2022-08-04T06:55:13.919Z,7.72
2022-08-04T06:57:43.411Z,4.05
2022-08-04T07:00:14.933Z,7.95
2022-08-04T07:02:51.121Z,8.68
2022-08-04T07:05:20.240Z,4.88
2022-08-04T07:07:56.977Z,9.15
2022-08-04T07:10:30.762Z,4.72
2022-08-04T07:13:00.051Z,5.90
2022-08-04T07:15:29.988Z,6.40
2022-08-04T07:18:03.204Z,6.97
2022-08-04T07:20:35.657Z,6.97
2022-08-04T07:23:08.187Z,5.00
2022-08-04T07:25:58.679Z,6.00
2022-08-04T07:28:33.430Z,6.93
2022-08-04T07:31:02.990Z,6.97
2022-08-04T07:33:30.955Z,5.00
2022-08-04T07:36:09.923Z,5.15
2022-08-04T07:38:48.533Z,5.03
2022-08-04T07:41:40.652Z,7.63
2022-08-04T07:44:09.720Z,6.07
2022-08-04T07:46:37.745Z,6.53
2022-08-04T07:49:06.435Z,3.88
2022-08-04T07:51:36.128Z,5.05
2022-08-04T07:54:05.599Z,5.82
2022-08-04T07:56:38.013Z,4.70
2022-08-04T07:59:07.015Z,5.18
2022-08-04T08:01:38.218Z,7.43
2022-08-04T08:04:07.912Z,5.82
2022-08-04T08:06:42.598Z,10.52
2022-08-04T08:09:21.526Z,4.30
2022-08-04T08:12:37.748Z,5.05
2022-08-04T08:14:39.171Z,9.77
2022-08-04T08:17:07.277Z,5.15
2022-08-04T08:19:36.374Z,5.82
2022-08-04T08:22:05.061Z,5.55
2022-08-04T08:24:36.397Z,5.80
2022-08-04T08:27:05.112Z,5.68
2022-08-04T08:29:34.878Z,5.90
2022-08-04T08:32:08.222Z,5.18
2022-08-04T08:34:38.027Z,5.45
2022-08-04T08:37:16.737Z,5.63
2022-08-04T08:39:54.581Z,5.43
2022-08-04T08:42:37.812Z,3.83
2022-08-04T08:45:07.989Z,5.32
2022-08-04T08:48:05.758Z,7.00
2022-08-04T08:51:25.105Z,5.18
2022-08-04T08:54:11.164Z,4.60
2022-08-04T08:57:06.235Z,7.13
2022-08-04T09:00:02.185Z,5.15
2022-08-04T09:02:45.694Z,6.25
2022-08-04T09:05:31.797Z,3.72
2022-08-04T09:08:23.519Z,4.93
2022-08-04T09:10:57.301Z,3.63
2022-08-04T09:13:34.435Z,7.82
2022-08-04T09:16:23.481Z,7.35
2022-08-04T09:18:53.909Z,5.43
2022-08-04T09:21:39.655Z,7.57
2022-08-04T09:24:34.737Z,6.05
2022-08-04T09:27:11.432Z,4.15
2022-08-04T09:29:52.929Z,3.65
2022-08-04T09:32:38.654Z,6.07
2022-08-04T09:35:36.698Z,7.82
2022-08-04T09:38:13.775Z,6.43
2022-08-04T09:40:53.265Z,7.07
2022-08-04T09:43:57.077Z,4.25
2022-08-04T09:46:47.324Z,5.67
2022-08-04T09:49:23.683Z,6.13
2022-08-04T09:51:59.830Z,8.75
2022-08-04T09:54:51.359Z,8.88
2022-08-04T09:57:56.723Z,3.60
2022-08-04T10:00:40.869Z,5.88
2022-08-04T10:03:17.453Z,6.93
2022-08-04T10:06:05.171Z,7.80
2022-08-04T10:09:00.347Z,5.75
2022-08-04T10:11:55.479Z,7.05
2022-08-04T10:14:51.922Z,5.85
2022-08-04T10:17:53.347Z,6.38
2022-08-04T10:20:54.104Z,4.47
2022-08-04T10:23:56.421Z,6.88
2022-08-04T10:26:29.864Z,7.75
2022-08-04T10:29:05.149Z,8.27
2022-08-04T10:31:54.373Z,6.63
2022-08-04T10:34:26.718Z,5.95
2022-08-04T10:37:05.230Z,4.03
2022-08-04T10:40:11.980Z,5.63
2022-08-04T10:42:47.367Z,5.82
2022-08-04T10:45:22.681Z,7.22
2022-08-04T10:48:06.110Z,5.70
2022-08-04T10:50:43.024Z,4.63
2022-08-04T10:53:17.656Z,6.15
2022-08-04T10:56:05.561Z,6.38
2022-08-04T10:58:48.253Z,9.57
2022-08-04T11:02:01.198Z,5.10
2022-08-04T11:04:36.892Z,6.38
2022-08-04T11:07:04.945Z,7.28
2022-08-04T11:09:34.425Z,6.78
2022-08-04T11:12:15.873Z,4.20
2022-08-04T11:14:52.249Z,6.80
2022-08-04T11:17:27.726Z,5.50
2022-08-04T11:20:35.151Z,8.50
2022-08-04T11:23:05.680Z,7.35
2022-08-04T11:25:59.051Z,6.45
2022-08-04T11:28:56.058Z,4.78
2022-08-04T11:31:39.707Z,5.47
2022-08-04T11:34:23.643Z,4.68
2022-08-04T11:37:48.409Z,5.65
2022-08-04T11:40:25.368Z,5.65
2022-08-04T11:42:57.444Z,4.72
2022-08-04T11:45:51.743Z,9.07
2022-08-04T11:49:02.751Z,6.00
2022-08-04T11:54:01.078Z,2.80
2022-08-04T11:56:36.509Z,4.95
2022-08-04T11:59:10.569Z,4.75
2022-08-04T12:01:43.835Z,4.53
2022-08-04T12:04:23.226Z,5.93
2022-08-04T12:09:59.977Z,11.20
2022-08-04T12:12:47.567Z,9.07
2022-08-04T12:15:33.259Z,5.20
2022-08-04T12:18:26.894Z,7.30
2022-08-04T12:21:02.624Z,5.18
2022-08-04T12:23:40.503Z,5.20
2022-08-04T12:26:23.708Z,8.77
2022-08-04T12:29:13.812Z,5.45
2022-08-04T12:31:46.035Z,5.00
2022-08-04T12:34:44.583Z,8.43
2022-08-04T12:37:34.007Z,11.02
2022-08-04T12:40:27.385Z,9.02
2022-08-04T12:43:23.672Z,8.40
2022-08-04T12:45:54.106Z,5.63
2022-08-04T12:48:24.421Z,6.72
2022-08-04T12:50:57.291Z,6.88
2022-08-04T12:53:32.831Z,6.78
2022-08-04T12:56:02.615Z,8.63
2022-08-04T12:58:42.261Z,6.68
2022-08-04T13:02:06.975Z,9.35
2022-08-04T13:04:24.518Z,9.73
2022-08-04T13:07:16.161Z,7.35
2022-08-04T13:09:44.413Z,8.10
2022-08-04T13:12:26.009Z,6.65
2022-08-04T13:15:19.292Z,6.72
2022-08-04T13:17:59.444Z,5.82
2022-08-04T13:20:32.658Z,6.80
2022-08-04T13:23:09.009Z,6.32
2022-08-04T13:26:43.303Z,6.13
2022-08-04T13:28:34.752Z,6.20
2022-08-04T13:31:06.474Z,8.73
2022-08-04T13:33:38.471Z,11.40
2022-08-04T13:36:08.444Z,7.30
2022-08-04T13:38:40.218Z,6.40
2022-08-04T13:41:09.368Z,7.72
2022-08-04T13:44:19.132Z,10.73
2022-08-04T13:46:59.114Z,7.40
2022-08-04T13:49:42.473Z,8.00
2022-08-04T13:52:14.181Z,7.95
2022-08-04T13:54:45.237Z,8.60
2022-08-04T13:57:28.037Z,6.32
2022-08-04T14:00:00.048Z,6.03
2022-08-04T14:02:43.614Z,7.65
2022-08-04T14:05:27.977Z,8.52
2022-08-04T14:08:08.092Z,12.73
2022-08-04T14:10:37.235Z,8.57
2022-08-04T14:13:07.412Z,6.55
2022-08-04T14:16:02.908Z,7.57
2022-08-04T14:18:32.920Z,8.13
2022-08-04T14:21:10.940Z,7.43
2022-08-04T14:23:49.348Z,8.13
2022-08-04T14:26:35.911Z,9.77
2022-08-04T14:29:26.789Z,7.65
2022-08-04T14:32:13.029Z,10.18
2022-08-04T14:34:45.125Z,20.25
2022-08-04T14:37:18.607Z,8.52
2022-08-04T14:40:17.529Z,8.25
2022-08-04T14:42:54.949Z,6.97
2022-08-04T14:45:55.053Z,6.22
2022-08-04T14:48:25.226Z,6.38
2022-08-04T14:50:52.886Z,9.50
2022-08-04T14:53:23.217Z,7.88
2022-08-04T14:55:57.202Z,6.38
2022-08-04T14:58:37.714Z,7.43
2022-08-04T15:01:10.550Z,9.68
2022-08-04T15:06:26.557Z,6.20
2022-08-04T15:08:57.089Z,8.50
2022-08-04T15:11:25.186Z,7.63
2022-08-04T15:13:53.829Z,6.60
2022-08-04T15:16:23.766Z,4.70
2022-08-04T15:18:52.771Z,8.45
2022-08-04T15:21:26.155Z,10.35
2022-08-04T15:23:53.752Z,8.52
2022-08-04T15:26:43.511Z,6.30
2022-08-04T15:30:00.135Z,7.90
2022-08-04T15:35:12.738Z,5.40
2022-08-04T15:37:44.888Z,9.70
2022-08-04T15:40:33.412Z,7.60
2022-08-04T15:43:18.541Z,6.32
2022-08-04T15:46:02.056Z,5.60
2022-08-04T15:48:40.090Z,4.93
2022-08-04T15:51:14.677Z,11.30
2022-08-04T15:54:02.479Z,7.78
2022-08-04T15:56:30.391Z,7.50
2022-08-04T15:58:58.023Z,9.38
2022-08-04T16:01:27.871Z,8.88
2022-08-04T16:04:00.230Z,8.63
2022-08-04T16:06:30.480Z,9.85
2022-08-04T16:09:00.437Z,7.32
2022-08-04T16:11:33.114Z,5.68
2022-08-04T16:14:03.417Z,8.93
2022-08-04T16:16:47.055Z,9.85
2022-08-04T16:19:35.350Z,10.60
2022-08-04T16:22:04.764Z,5.60
2022-08-04T16:24:37.462Z,9.43
2022-08-04T16:27:06.577Z,9.25
2022-08-04T16:29:41.604Z,6.38
2022-08-04T16:32:36.667Z,9.18
2022-08-04T16:35:18.064Z,8.05
2022-08-04T16:37:45.539Z,9.43
2022-08-04T16:40:38.897Z,13.70
2022-08-04T16:43:09.827Z,8.05
2022-08-04T16:45:49.570Z,8.93
2022-08-04T16:48:22.831Z,11.15
2022-08-04T16:51:04.760Z,9.48
2022-08-04T16:54:02.962Z,5.28
2022-08-04T16:56:30.157Z,12.38
2022-08-04T16:59:07.671Z,5.93
2022-08-04T17:01:35.745Z,6.05
2022-08-04T17:04:05.671Z,5.32
2022-08-04T17:06:51.705Z,8.20
2022-08-04T17:09:23.311Z,6.20
2022-08-04T17:11:54.147Z,6.93
2022-08-04T17:14:23.516Z,8.48
2022-08-04T17:16:51.939Z,7.50
2022-08-04T17:19:25.066Z,6.47
2022-08-04T17:22:07.624Z,9.20
2022-08-04T17:24:41.253Z,8.32
2022-08-04T17:28:06.185Z,9.45
2022-08-04T17:29:58.402Z,9.02
2022-08-04T17:32:26.139Z,5.63
2022-08-04T17:34:57.429Z,11.02
2022-08-04T17:37:51.899Z,9.77
2022-08-04T17:40:18.679Z,6.35
2022-08-04T17:44:04.772Z,8.98
2022-08-04T17:46:34.528Z,8.43
2022-08-04T17:49:12.751Z,9.18
2022-08-04T17:52:06.565Z,5.88
2022-08-04T17:54:40.818Z,4.95
2022-08-04T17:57:19.587Z,7.32
2022-08-04T17:59:56.540Z,6.40
2022-08-04T18:02:53.660Z,6.55
2022-08-04T18:08:39.099Z,4.78
2022-08-04T18:11:05.647Z,4.25
2022-08-04T18:13:42.869Z,5.57
2022-08-04T18:16:21.991Z,4.88
2022-08-04T18:19:09.504Z,3.63
2022-08-04T18:21:46.208Z,4.90
2022-08-04T18:24:34.276Z,4.15
2022-08-04T18:27:14.551Z,3.20
2022-08-04T18:30:15.020Z,4.50
2022-08-04T18:32:33.603Z,6.75
2022-08-04T18:35:05.207Z,4.00
2022-08-04T18:40:26.794Z,15.90
2022-08-04T18:43:00.033Z,13.52
2022-08-04T18:45:33.840Z,12.20
2022-08-04T18:48:04.218Z,11.80
2022-08-04T18:51:08.826Z,9.43
2022-08-04T18:53:34.879Z,9.43
2022-08-04T18:56:06.251Z,5.55
2022-08-04T18:58:48.700Z,7.13
2022-08-04T19:01:16.255Z,5.40
2022-08-04T19:03:45.601Z,11.30
2022-08-04T19:06:16.013Z,7.30
2022-08-04T19:08:45.033Z,11.93
2022-08-04T19:11:37.228Z,9.68
2022-08-04T19:14:02.886Z,6.60
2022-08-04T19:16:33.386Z,4.60
2022-08-04T19:19:03.518Z,4.82
2022-08-04T19:21:59.704Z,6.05
2022-08-04T19:24:32.821Z,5.28
2022-08-04T19:27:06.543Z,5.60
2022-08-04T19:29:52.693Z,4.53
2022-08-04T19:32:21.615Z,4.45
2022-08-04T19:34:52.335Z,5.57
2022-08-04T19:37:58.369Z,5.88
2022-08-04T19:40:10.150Z,18.65
2022-08-04T19:42:40.246Z,14.43
2022-08-04T19:45:08.901Z,6.68
2022-08-04T19:48:22.174Z,5.63
2022-08-04T19:50:24.968Z,6.05
2022-08-04T19:52:53.649Z,2.95
2022-08-04T19:58:13.009Z,3.60
2022-08-04T20:00:51.000Z,4.07
2022-08-04T20:03:20.254Z,4.85
2022-08-04T20:05:53.387Z,4.05
2022-08-04T20:08:24.182Z,4.10
2022-08-04T20:10:54.570Z,4.30
2022-08-04T20:13:25.391Z,4.30
2022-08-04T20:15:59.436Z,2.35
2022-08-04T20:18:35.992Z,3.90
2022-08-04T20:21:20.258Z,3.85
2022-08-04T20:23:52.734Z,4.30
2022-08-04T20:26:20.664Z,2.92
2022-08-04T20:28:52.529Z,3.45
2022-08-04T20:31:23.466Z,2.50
2022-08-04T20:33:59.188Z,2.95
2022-08-04T20:36:26.806Z,4.10
2022-08-04T20:38:54.820Z,3.88
2022-08-04T20:41:22.537Z,4.18
2022-08-04T20:43:50.705Z,4.10
2022-08-04T20:46:29.540Z,6.75
2022-08-04T20:48:58.266Z,4.15
2022-08-04T20:51:31.584Z,6.63
2022-08-04T20:54:02.141Z,12.65
2022-08-04T20:56:31.001Z,10.27
2022-08-04T20:59:00.256Z,8.10
2022-08-04T21:01:29.990Z,4.80
2022-08-04T21:04:27.942Z,7.00
2022-08-04T21:07:01.229Z,12.48
2022-08-04T21:09:38.498Z,7.78
2022-08-04T21:12:27.579Z,5.70
2022-08-04T21:14:58.141Z,7.20
2022-08-04T21:17:59.320Z,7.05
2022-08-04T21:20:13.980Z,6.10
2022-08-04T21:22:41.664Z,6.18
2022-08-04T21:25:14.565Z,7.13
2022-08-04T21:27:44.537Z,5.38
2022-08-04T21:30:26.246Z,11.32
2022-08-04T21:33:06.108Z,11.82
2022-08-04T21:35:39.749Z,12.63
2022-08-04T21:38:16.599Z,8.55
2022-08-04T21:40:56.775Z,13.20
2022-08-04T21:43:27.433Z,9.27
2022-08-04T21:46:03.919Z,12.18
2022-08-04T21:48:32.984Z,11.20
2022-08-04T21:51:58.608Z,9.63
2022-08-04T21:54:05.985Z,10.63
2022-08-04T21:56:34.322Z,10.85
2022-08-04T21:59:07.171Z,14.43
2022-08-04T22:01:51.059Z,15.75
2022-08-04T22:04:20.539Z,17.25
2022-08-04T22:06:51.950Z,14.32
2022-08-04T22:09:21.884Z,15.77
2022-08-04T22:11:51.552Z,16.13
2022-08-04T22:14:27.255Z,16.40
2022-08-04T22:16:57.488Z,18.10
2022-08-04T22:19:39.752Z,17.63
2022-08-04T22:22:12.537Z,16.77
2022-08-04T22:24:41.322Z,19.33
2022-08-04T22:27:13.093Z,15.60
2022-08-04T22:29:44.776Z,17.27
2022-08-04T22:32:12.350Z,16.30
2022-08-04T22:34:45.654Z,19.55
2022-08-04T22:37:20.971Z,17.48
2022-08-04T22:40:04.919Z,19.35
2022-08-04T22:42:32.595Z,16.45
2022-08-04T22:45:01.393Z,16.20
2022-08-04T22:47:31.447Z,21.17
2022-08-04T22:50:13.855Z,15.45
2022-08-04T22:52:51.637Z,19.45
2022-08-04T22:55:24.006Z,18.15
2022-08-04T22:58:04.306Z,15.73
2022-08-04T23:00:33.339Z,19.83
2022-08-04T23:03:00.921Z,17.42
2022-08-04T23:05:35.558Z,19.48
2022-08-04T23:08:05.214Z,21.25
2022-08-04T23:10:33.117Z,17.98
2022-08-04T23:13:04.009Z,21.10
2022-08-04T23:15:33.663Z,20.50
2022-08-04T23:18:01.380Z,18.33
2022-08-04T23:20:32.721Z,20.67
2022-08-04T23:23:14.625Z,17.58
2022-08-04T23:26:07.406Z,17.53
2022-08-04T23:28:33.493Z,19.45
2022-08-04T23:31:02.228Z,19.70
2022-08-04T23:33:50.856Z,15.80
2022-08-04T23:36:18.190Z,15.20
2022-08-04T23:38:46.227Z,15.18
2022-08-04T23:41:17.251Z,16.13
2022-08-04T23:43:55.078Z,17.35
2022-08-04T23:46:23.947Z,17.80
2022-08-04T23:48:52.369Z,17.67
2022-08-04T23:51:20.110Z,18.17
2022-08-04T23:54:01.638Z,18.15
2022-08-04T23:56:31.900Z,21.02
2022-08-04T23:59:03.387Z,21.60
